sensor_id;sensor_type;location;lat;lon;timestamp;temperature;humidity
29731;DHT22;16639;51.488;0.152;2022-09-09T00:04:38;15.80;99.90
29731;DHT22;16639;51.488;0.152;2022-09-09T00:12:32;15.70;99.90
29731;DHT22;16639;51.488;0.152;2022-09-09T00:15:07;15.70;99.90
29731;DHT22;16639;51.488;0.152;2022-09-09T00:22:36;15.80;99.90
29731;DHT22;16639;51.488;0.152;2022-09-09T00:25:10;15.70;99.90
29731;DHT22;16639;51.488;0.152;2022-09-09T00:27:41;15.00;99.90
29731;DHT22;16639;51.488;0.152;2022-09-09T00:32:43;15.40;99.90
29731;DHT22;16639;51.488;0.152;2022-09-09T00:35:16;15.70;99.90
29731;DHT22;16639;51.488;0.152;2022-09-09T00:37:46;15.70;99.90
29731;DHT22;16639;51.488;0.152;2022-09-09T00:40:18;15.70;99.90
29731;DHT22;16639;51.488;0.152;2022-09-09T00:42:50;15.70;99.90
29731;DHT22;16639;51.488;0.152;2022-09-09T00:45:41;15.70;99.90
29731;DHT22;16639;51.488;0.152;2022-09-09T00:48:15;15.80;99.90
29731;DHT22;16639;51.488;0.152;2022-09-09T00:50:52;15.80;99.90
29731;DHT22;16639;51.488;0.152;2022-09-09T00:58:35;16.00;99.90
29731;DHT22;16639;51.488;0.152;2022-09-09T01:01:08;15.80;99.90
29731;DHT22;16639;51.488;0.152;2022-09-09T01:03:47;15.60;99.90
29731;DHT22;16639;51.488;0.152;2022-09-09T01:06:30;15.80;99.90
29731;DHT22;16639;51.488;0.152;2022-09-09T01:25:09;15.80;99.90
29731;DHT22;16639;51.488;0.152;2022-09-09T01:27:36;15.80;99.90
29731;DHT22;16639;51.488;0.152;2022-09-09T01:30:07;15.80;99.90
29731;DHT22;16639;51.488;0.152;2022-09-09T01:32:42;15.90;99.90
29731;DHT22;16639;51.488;0.152;2022-09-09T01:35:22;15.80;99.90
29731;DHT22;16639;51.488;0.152;2022-09-09T01:37:54;15.80;99.90
29731;DHT22;16639;51.488;0.152;2022-09-09T01:40:21;15.90;99.90
29731;DHT22;16639;51.488;0.152;2022-09-09T01:42:50;15.90;99.90
29731;DHT22;16639;51.488;0.152;2022-09-09T01:45:18;15.80;99.90
29731;DHT22;16639;51.488;0.152;2022-09-09T01:47:45;15.80;99.90
29731;DHT22;16639;51.488;0.152;2022-09-09T01:50:13;15.90;99.90
29731;DHT22;16639;51.488;0.152;2022-09-09T01:52:42;15.80;99.90
29731;DHT22;16639;51.488;0.152;2022-09-09T01:55:10;15.80;99.90
29731;DHT22;16639;51.488;0.152;2022-09-09T02:00:06;15.90;99.90
29731;DHT22;16639;51.488;0.152;2022-09-09T02:02:40;15.90;99.90
29731;DHT22;16639;51.488;0.152;2022-09-09T02:05:17;15.90;99.90
29731;DHT22;16639;51.488;0.152;2022-09-09T02:07:47;15.00;99.90
29731;DHT22;16639;51.488;0.152;2022-09-09T02:10:21;15.90;99.90
29731;DHT22;16639;51.488;0.152;2022-09-09T02:18:18;15.90;99.90
29731;DHT22;16639;51.488;0.152;2022-09-09T02:20:46;15.90;99.90
29731;DHT22;16639;51.488;0.152;2022-09-09T02:23:14;15.90;99.90
29731;DHT22;16639;51.488;0.152;2022-09-09T02:25:42;15.90;99.90
29731;DHT22;16639;51.488;0.152;2022-09-09T02:28:11;15.30;99.90
29731;DHT22;16639;51.488;0.152;2022-09-09T02:30:39;16.00;99.90
29731;DHT22;16639;51.488;0.152;2022-09-09T02:33:07;16.00;99.90
29731;DHT22;16639;51.488;0.152;2022-09-09T02:35:37;16.00;99.90
29731;DHT22;16639;51.488;0.152;2022-09-09T02:38:06;15.90;99.90
29731;DHT22;16639;51.488;0.152;2022-09-09T02:40:34;15.90;99.90
29731;DHT22;16639;51.488;0.152;2022-09-09T02:43:01;15.90;99.90
29731;DHT22;16639;51.488;0.152;2022-09-09T02:45:36;15.90;99.90
29731;DHT22;16639;51.488;0.152;2022-09-09T02:48:11;15.90;99.90
29731;DHT22;16639;51.488;0.152;2022-09-09T02:53:16;15.90;99.90
29731;DHT22;16639;51.488;0.152;2022-09-09T02:58:15;15.90;99.90
29731;DHT22;16639;51.488;0.152;2022-09-09T03:00:45;15.90;99.90
29731;DHT22;16639;51.488;0.152;2022-09-09T03:03:13;15.90;99.90
29731;DHT22;16639;51.488;0.152;2022-09-09T03:05:40;16.30;99.90
29731;DHT22;16639;51.488;0.152;2022-09-09T03:08:10;16.00;99.90
29731;DHT22;16639;51.488;0.152;2022-09-09T03:10:37;15.40;99.90
29731;DHT22;16639;51.488;0.152;2022-09-09T03:13:05;16.00;99.90
29731;DHT22;16639;51.488;0.152;2022-09-09T03:15:32;17.40;99.90
29731;DHT22;16639;51.488;0.152;2022-09-09T03:17:59;16.20;99.90
29731;DHT22;16639;51.488;0.152;2022-09-09T03:20:27;15.90;99.90
29731;DHT22;16639;51.488;0.152;2022-09-09T03:22:55;15.90;99.90
29731;DHT22;16639;51.488;0.152;2022-09-09T03:25:23;15.90;99.90
29731;DHT22;16639;51.488;0.152;2022-09-09T03:27:51;15.70;99.90
29731;DHT22;16639;51.488;0.152;2022-09-09T03:30:22;15.90;99.90
29731;DHT22;16639;51.488;0.152;2022-09-09T03:32:49;16.00;99.90
29731;DHT22;16639;51.488;0.152;2022-09-09T03:35:17;15.90;99.90
29731;DHT22;16639;51.488;0.152;2022-09-09T03:37:44;15.90;99.90
29731;DHT22;16639;51.488;0.152;2022-09-09T03:40:12;16.00;99.90
29731;DHT22;16639;51.488;0.152;2022-09-09T03:42:39;16.00;99.90
29731;DHT22;16639;51.488;0.152;2022-09-09T03:45:07;15.90;99.90
29731;DHT22;16639;51.488;0.152;2022-09-09T03:47:36;15.90;99.90
29731;DHT22;16639;51.488;0.152;2022-09-09T03:50:04;16.00;99.90
29731;DHT22;16639;51.488;0.152;2022-09-09T03:52:38;15.90;99.90
29731;DHT22;16639;51.488;0.152;2022-09-09T03:55:05;16.00;99.90
29731;DHT22;16639;51.488;0.152;2022-09-09T03:57:33;16.00;99.90
29731;DHT22;16639;51.488;0.152;2022-09-09T04:00:03;16.10;99.90
29731;DHT22;16639;51.488;0.152;2022-09-09T04:02:31;16.00;99.90
29731;DHT22;16639;51.488;0.152;2022-09-09T04:04:59;16.00;99.90
29731;DHT22;16639;51.488;0.152;2022-09-09T04:07:26;16.00;99.90
29731;DHT22;16639;51.488;0.152;2022-09-09T04:09:55;16.00;99.90
29731;DHT22;16639;51.488;0.152;2022-09-09T04:12:22;16.00;99.90
29731;DHT22;16639;51.488;0.152;2022-09-09T04:14:49;16.00;99.90
29731;DHT22;16639;51.488;0.152;2022-09-09T04:17:17;16.00;99.90
29731;DHT22;16639;51.488;0.152;2022-09-09T04:19:44;16.00;99.90
29731;DHT22;16639;51.488;0.152;2022-09-09T04:22:11;16.00;99.90
29731;DHT22;16639;51.488;0.152;2022-09-09T04:24:38;16.00;99.90
29731;DHT22;16639;51.488;0.152;2022-09-09T04:27:05;15.10;99.90
29731;DHT22;16639;51.488;0.152;2022-09-09T04:29:33;15.90;99.90
29731;DHT22;16639;51.488;0.152;2022-09-09T04:32:00;15.90;99.90
29731;DHT22;16639;51.488;0.152;2022-09-09T04:34:27;15.90;99.90
29731;DHT22;16639;51.488;0.152;2022-09-09T04:36:55;15.90;99.90
29731;DHT22;16639;51.488;0.152;2022-09-09T04:39:23;15.90;99.90
29731;DHT22;16639;51.488;0.152;2022-09-09T04:41:50;15.80;99.90
29731;DHT22;16639;51.488;0.152;2022-09-09T04:44:18;15.80;99.90
29731;DHT22;16639;51.488;0.152;2022-09-09T04:46:45;15.80;99.90
29731;DHT22;16639;51.488;0.152;2022-09-09T04:49:12;15.80;99.90
29731;DHT22;16639;51.488;0.152;2022-09-09T04:51:41;15.80;99.90
29731;DHT22;16639;51.488;0.152;2022-09-09T04:54:08;15.90;99.90
29731;DHT22;16639;51.488;0.152;2022-09-09T04:56:35;15.80;99.90
29731;DHT22;16639;51.488;0.152;2022-09-09T04:59:03;15.80;99.90
29731;DHT22;16639;51.488;0.152;2022-09-09T05:01:31;15.70;99.90
29731;DHT22;16639;51.488;0.152;2022-09-09T05:03:59;15.80;99.90
29731;DHT22;16639;51.488;0.152;2022-09-09T05:06:26;15.80;99.90
29731;DHT22;16639;51.488;0.152;2022-09-09T05:08:53;15.80;99.90
29731;DHT22;16639;51.488;0.152;2022-09-09T05:11:21;15.90;99.90
29731;DHT22;16639;51.488;0.152;2022-09-09T05:13:50;15.80;99.90
29731;DHT22;16639;51.488;0.152;2022-09-09T05:16:18;15.80;99.90
29731;DHT22;16639;51.488;0.152;2022-09-09T05:18:45;15.80;99.90
29731;DHT22;16639;51.488;0.152;2022-09-09T05:21:17;15.80;99.90
29731;DHT22;16639;51.488;0.152;2022-09-09T05:23:45;15.80;99.90
29731;DHT22;16639;51.488;0.152;2022-09-09T05:26:13;15.80;99.90
29731;DHT22;16639;51.488;0.152;2022-09-09T05:28:43;15.80;99.90
29731;DHT22;16639;51.488;0.152;2022-09-09T05:31:13;15.80;99.90
29731;DHT22;16639;51.488;0.152;2022-09-09T05:33:41;16.60;99.90
29731;DHT22;16639;51.488;0.152;2022-09-09T05:36:10;15.80;99.90
29731;DHT22;16639;51.488;0.152;2022-09-09T05:38:40;15.80;99.90
29731;DHT22;16639;51.488;0.152;2022-09-09T05:41:08;15.80;99.90
29731;DHT22;16639;51.488;0.152;2022-09-09T05:43:37;15.80;99.90
29731;DHT22;16639;51.488;0.152;2022-09-09T05:46:06;15.80;99.90
29731;DHT22;16639;51.488;0.152;2022-09-09T05:48:38;15.80;99.90
29731;DHT22;16639;51.488;0.152;2022-09-09T05:51:07;15.80;99.90
29731;DHT22;16639;51.488;0.152;2022-09-09T05:53:35;15.80;99.90
29731;DHT22;16639;51.488;0.152;2022-09-09T05:56:03;15.80;99.90
29731;DHT22;16639;51.488;0.152;2022-09-09T05:58:31;15.80;99.90
29731;DHT22;16639;51.488;0.152;2022-09-09T06:01:13;15.80;99.90
29731;DHT22;16639;51.488;0.152;2022-09-09T06:03:41;15.80;99.90
29731;DHT22;16639;51.488;0.152;2022-09-09T06:06:13;15.80;99.90
29731;DHT22;16639;51.488;0.152;2022-09-09T06:08:41;15.80;99.90
29731;DHT22;16639;51.488;0.152;2022-09-09T06:11:11;15.80;99.90
29731;DHT22;16639;51.488;0.152;2022-09-09T06:13:39;16.80;99.90
29731;DHT22;16639;51.488;0.152;2022-09-09T06:16:10;15.80;99.90
29731;DHT22;16639;51.488;0.152;2022-09-09T06:18:39;15.80;99.90
29731;DHT22;16639;51.488;0.152;2022-09-09T06:21:08;14.40;99.90
29731;DHT22;16639;51.488;0.152;2022-09-09T06:23:36;15.80;99.90
29731;DHT22;16639;51.488;0.152;2022-09-09T06:26:08;15.60;99.90
29731;DHT22;16639;51.488;0.152;2022-09-09T06:28:36;15.80;99.90
29731;DHT22;16639;51.488;0.152;2022-09-09T06:31:04;15.80;99.90
29731;DHT22;16639;51.488;0.152;2022-09-09T06:33:41;15.80;99.90
29731;DHT22;16639;51.488;0.152;2022-09-09T06:36:12;15.90;99.90
29731;DHT22;16639;51.488;0.152;2022-09-09T06:38:44;15.90;99.90
29731;DHT22;16639;51.488;0.152;2022-09-09T06:41:11;15.90;99.90
29731;DHT22;16639;51.488;0.152;2022-09-09T06:43:39;15.90;99.90
29731;DHT22;16639;51.488;0.152;2022-09-09T06:46:08;15.90;99.90
29731;DHT22;16639;51.488;0.152;2022-09-09T06:48:36;16.00;99.90
29731;DHT22;16639;51.488;0.152;2022-09-09T06:51:08;16.00;99.90
29731;DHT22;16639;51.488;0.152;2022-09-09T06:53:35;16.00;99.90
29731;DHT22;16639;51.488;0.152;2022-09-09T06:56:17;15.90;99.90
29731;DHT22;16639;51.488;0.152;2022-09-09T06:58:44;15.90;99.90
29731;DHT22;16639;51.488;0.152;2022-09-09T07:01:13;15.90;99.90
29731;DHT22;16639;51.488;0.152;2022-09-09T07:03:41;15.90;99.90
29731;DHT22;16639;51.488;0.152;2022-09-09T07:08:41;15.90;99.90
29731;DHT22;16639;51.488;0.152;2022-09-09T07:11:08;15.90;99.90
29731;DHT22;16639;51.488;0.152;2022-09-09T07:13:38;16.00;99.90
29731;DHT22;16639;51.488;0.152;2022-09-09T07:16:09;15.90;99.90
29731;DHT22;16639;51.488;0.152;2022-09-09T07:18:37;16.10;99.90
29731;DHT22;16639;51.488;0.152;2022-09-09T07:21:04;15.90;99.90
29731;DHT22;16639;51.488;0.152;2022-09-09T07:23:31;16.00;99.90
29731;DHT22;16639;51.488;0.152;2022-09-09T07:26:02;16.00;99.90
29731;DHT22;16639;51.488;0.152;2022-09-09T07:28:29;16.10;99.90
29731;DHT22;16639;51.488;0.152;2022-09-09T07:30:59;16.10;99.90
29731;DHT22;16639;51.488;0.152;2022-09-09T07:33:27;16.10;99.90
29731;DHT22;16639;51.488;0.152;2022-09-09T07:35:54;16.10;99.90
29731;DHT22;16639;51.488;0.152;2022-09-09T07:38:28;16.10;99.90
29731;DHT22;16639;51.488;0.152;2022-09-09T07:41:03;16.10;99.90
29731;DHT22;16639;51.488;0.152;2022-09-09T07:43:30;16.10;99.90
29731;DHT22;16639;51.488;0.152;2022-09-09T07:45:58;16.00;99.90
29731;DHT22;16639;51.488;0.152;2022-09-09T07:48:25;16.60;99.90
29731;DHT22;16639;51.488;0.152;2022-09-09T07:50:52;16.10;99.90
29731;DHT22;16639;51.488;0.152;2022-09-09T07:53:19;16.20;99.90
29731;DHT22;16639;51.488;0.152;2022-09-09T07:55:47;16.20;99.90
29731;DHT22;16639;51.488;0.152;2022-09-09T07:58:14;16.30;99.90
29731;DHT22;16639;51.488;0.152;2022-09-09T08:00:41;16.30;99.90
29731;DHT22;16639;51.488;0.152;2022-09-09T08:03:10;16.30;99.90
29731;DHT22;16639;51.488;0.152;2022-09-09T08:05:37;16.30;99.90
29731;DHT22;16639;51.488;0.152;2022-09-09T08:08:06;16.30;99.90
29731;DHT22;16639;51.488;0.152;2022-09-09T08:10:35;16.30;99.90
29731;DHT22;16639;51.488;0.152;2022-09-09T08:13:02;16.40;99.90
29731;DHT22;16639;51.488;0.152;2022-09-09T08:15:44;16.40;99.90
29731;DHT22;16639;51.488;0.152;2022-09-09T08:18:13;16.40;99.90
29731;DHT22;16639;51.488;0.152;2022-09-09T08:20:40;16.40;99.90
29731;DHT22;16639;51.488;0.152;2022-09-09T08:23:08;17.40;99.90
29731;DHT22;16639;51.488;0.152;2022-09-09T08:25:35;15.60;99.90
29731;DHT22;16639;51.488;0.152;2022-09-09T08:28:02;16.30;99.90
29731;DHT22;16639;51.488;0.152;2022-09-09T08:30:30;16.30;99.90
29731;DHT22;16639;51.488;0.152;2022-09-09T08:32:57;16.40;99.90
29731;DHT22;16639;51.488;0.152;2022-09-09T08:35:24;16.50;99.90
29731;DHT22;16639;51.488;0.152;2022-09-09T08:37:53;16.40;99.90
29731;DHT22;16639;51.488;0.152;2022-09-09T08:40:22;16.50;99.90
29731;DHT22;16639;51.488;0.152;2022-09-09T08:42:52;16.50;99.90
29731;DHT22;16639;51.488;0.152;2022-09-09T08:45:29;16.50;99.90
29731;DHT22;16639;51.488;0.152;2022-09-09T08:48:11;16.60;99.90
29731;DHT22;16639;51.488;0.152;2022-09-09T08:50:40;16.60;99.90
29731;DHT22;16639;51.488;0.152;2022-09-09T08:53:14;16.70;99.90
29731;DHT22;16639;51.488;0.152;2022-09-09T08:58:19;16.80;99.90
29731;DHT22;16639;51.488;0.152;2022-09-09T09:03:22;16.80;99.90
29731;DHT22;16639;51.488;0.152;2022-09-09T09:05:57;16.80;99.90
29731;DHT22;16639;51.488;0.152;2022-09-09T09:08:39;16.90;99.90
29731;DHT22;16639;51.488;0.152;2022-09-09T09:11:10;16.90;99.90
29731;DHT22;16639;51.488;0.152;2022-09-09T09:13:43;16.90;99.90
29731;DHT22;16639;51.488;0.152;2022-09-09T09:16:26;17.00;99.90
29731;DHT22;16639;51.488;0.152;2022-09-09T09:18:59;17.40;99.90
29731;DHT22;16639;51.488;0.152;2022-09-09T09:24:03;17.10;99.90
29731;DHT22;16639;51.488;0.152;2022-09-09T09:26:32;18.40;99.90
29731;DHT22;16639;51.488;0.152;2022-09-09T09:29:00;17.80;99.90
29731;DHT22;16639;51.488;0.152;2022-09-09T09:31:29;17.20;99.90
29731;DHT22;16639;51.488;0.152;2022-09-09T09:33:56;17.20;99.90
29731;DHT22;16639;51.488;0.152;2022-09-09T09:39:23;17.30;99.90
29731;DHT22;16639;51.488;0.152;2022-09-09T09:42:14;17.30;99.90
29731;DHT22;16639;51.488;0.152;2022-09-09T09:44:47;17.30;99.90
29731;DHT22;16639;51.488;0.152;2022-09-09T09:47:16;17.40;99.90
29731;DHT22;16639;51.488;0.152;2022-09-09T09:49:55;17.40;99.90
29731;DHT22;16639;51.488;0.152;2022-09-09T09:52:25;18.50;99.90
29731;DHT22;16639;51.488;0.152;2022-09-09T09:54:53;17.50;99.90
29731;DHT22;16639;51.488;0.152;2022-09-09T09:57:24;17.50;99.90
29731;DHT22;16639;51.488;0.152;2022-09-09T10:00:12;17.50;99.90
29731;DHT22;16639;51.488;0.152;2022-09-09T10:02:41;17.70;99.90
29731;DHT22;16639;51.488;0.152;2022-09-09T10:05:20;17.60;99.90
29731;DHT22;16639;51.488;0.152;2022-09-09T10:08:08;17.60;99.90
29731;DHT22;16639;51.488;0.152;2022-09-09T10:21:16;17.50;99.90
29731;DHT22;16639;51.488;0.152;2022-09-09T10:23:54;17.60;99.90
29731;DHT22;16639;51.488;0.152;2022-09-09T10:26:35;17.70;99.90
29731;DHT22;16639;51.488;0.152;2022-09-09T10:29:17;17.80;99.90
29731;DHT22;16639;51.488;0.152;2022-09-09T10:34:41;17.80;99.90
29731;DHT22;16639;51.488;0.152;2022-09-09T10:37:22;17.80;99.90
29731;DHT22;16639;51.488;0.152;2022-09-09T10:39:55;17.90;99.90
29731;DHT22;16639;51.488;0.152;2022-09-09T10:42:28;18.00;99.90
29731;DHT22;16639;51.488;0.152;2022-09-09T10:53:22;18.20;99.90
29731;DHT22;16639;51.488;0.152;2022-09-09T10:55:51;18.10;99.90
29731;DHT22;16639;51.488;0.152;2022-09-09T10:58:23;18.20;99.90
29731;DHT22;16639;51.488;0.152;2022-09-09T11:00:54;18.30;99.90
29731;DHT22;16639;51.488;0.152;2022-09-09T11:03:28;18.40;99.90
29731;DHT22;16639;51.488;0.152;2022-09-09T11:08:27;18.40;99.90
29731;DHT22;16639;51.488;0.152;2022-09-09T11:16:05;18.30;99.90
29731;DHT22;16639;51.488;0.152;2022-09-09T11:18:37;18.20;99.90
29731;DHT22;16639;51.488;0.152;2022-09-09T11:21:08;18.10;99.90
29731;DHT22;16639;51.488;0.152;2022-09-09T11:23:40;18.10;99.90
29731;DHT22;16639;51.488;0.152;2022-09-09T11:26:11;18.10;99.90
29731;DHT22;16639;51.488;0.152;2022-09-09T11:33:58;17.80;99.90
29731;DHT22;16639;51.488;0.152;2022-09-09T11:36:49;17.80;99.90
29731;DHT22;16639;51.488;0.152;2022-09-09T11:42:07;17.80;99.90
29731;DHT22;16639;51.488;0.152;2022-09-09T11:44:42;17.80;99.90
29731;DHT22;16639;51.488;0.152;2022-09-09T11:47:28;18.00;99.90
29731;DHT22;16639;51.488;0.152;2022-09-09T11:52:41;17.70;99.90
29731;DHT22;16639;51.488;0.152;2022-09-09T11:55:27;17.70;99.90
29731;DHT22;16639;51.488;0.152;2022-09-09T12:03:00;17.70;99.90
29731;DHT22;16639;51.488;0.152;2022-09-09T12:05:38;17.70;99.90
29731;DHT22;16639;51.488;0.152;2022-09-09T12:08:06;17.70;99.90
29731;DHT22;16639;51.488;0.152;2022-09-09T12:10:38;17.80;99.90
29731;DHT22;16639;51.488;0.152;2022-09-09T12:13:25;17.90;99.90
29731;DHT22;16639;51.488;0.152;2022-09-09T12:15:54;19.00;99.90
29731;DHT22;16639;51.488;0.152;2022-09-09T12:18:26;18.10;99.90
29731;DHT22;16639;51.488;0.152;2022-09-09T12:23:53;18.40;99.90
29731;DHT22;16639;51.488;0.152;2022-09-09T12:29:00;18.50;99.90
29731;DHT22;16639;51.488;0.152;2022-09-09T12:34:02;18.40;99.90
29731;DHT22;16639;51.488;0.152;2022-09-09T12:36:31;18.40;99.90
29731;DHT22;16639;51.488;0.152;2022-09-09T12:39:09;18.30;99.90
29731;DHT22;16639;51.488;0.152;2022-09-09T12:41:37;17.80;99.90
29731;DHT22;16639;51.488;0.152;2022-09-09T12:44:06;18.30;99.90
29731;DHT22;16639;51.488;0.152;2022-09-09T12:49:00;18.30;99.90
29731;DHT22;16639;51.488;0.152;2022-09-09T12:51:28;18.40;99.90
29731;DHT22;16639;51.488;0.152;2022-09-09T12:53:56;18.50;99.90
29731;DHT22;16639;51.488;0.152;2022-09-09T12:56:28;18.60;99.90
29731;DHT22;16639;51.488;0.152;2022-09-09T12:58:57;18.60;99.90
29731;DHT22;16639;51.488;0.152;2022-09-09T13:01:29;18.50;99.90
29731;DHT22;16639;51.488;0.152;2022-09-09T13:03:57;18.50;99.90
29731;DHT22;16639;51.488;0.152;2022-09-09T13:06:26;18.40;99.90
29731;DHT22;16639;51.488;0.152;2022-09-09T13:08:56;18.30;99.90
29731;DHT22;16639;51.488;0.152;2022-09-09T13:11:25;18.30;99.90
29731;DHT22;16639;51.488;0.152;2022-09-09T13:13:53;18.30;99.90
29731;DHT22;16639;51.488;0.152;2022-09-09T13:16:26;18.30;99.90
29731;DHT22;16639;51.488;0.152;2022-09-09T13:19:09;18.40;99.90
29731;DHT22;16639;51.488;0.152;2022-09-09T13:21:38;18.30;99.90
29731;DHT22;16639;51.488;0.152;2022-09-09T13:24:07;18.40;99.90
29731;DHT22;16639;51.488;0.152;2022-09-09T13:26:56;18.40;99.90
29731;DHT22;16639;51.488;0.152;2022-09-09T13:29:29;18.40;99.90
29731;DHT22;16639;51.488;0.152;2022-09-09T13:32:15;18.50;99.90
29731;DHT22;16639;51.488;0.152;2022-09-09T13:34:56;18.60;99.90
29731;DHT22;16639;51.488;0.152;2022-09-09T13:37:26;18.50;99.90
29731;DHT22;16639;51.488;0.152;2022-09-09T13:39:57;18.70;99.90
29731;DHT22;16639;51.488;0.152;2022-09-09T13:42:28;18.80;99.90
29731;DHT22;16639;51.488;0.152;2022-09-09T13:44:58;18.80;99.90
29731;DHT22;16639;51.488;0.152;2022-09-09T13:47:34;18.90;99.90
29731;DHT22;16639;51.488;0.152;2022-09-09T13:52:48;18.90;99.90
29731;DHT22;16639;51.488;0.152;2022-09-09T13:55:17;18.90;99.90
29731;DHT22;16639;51.488;0.152;2022-09-09T13:57:51;18.90;99.90
29731;DHT22;16639;51.488;0.152;2022-09-09T14:00:19;18.90;99.90
29731;DHT22;16639;51.488;0.152;2022-09-09T14:02:48;19.00;99.90
29731;DHT22;16639;51.488;0.152;2022-09-09T14:05:15;19.10;99.90
29731;DHT22;16639;51.488;0.152;2022-09-09T14:07:43;19.10;99.90
29731;DHT22;16639;51.488;0.152;2022-09-09T14:10:11;19.00;99.90
29731;DHT22;16639;51.488;0.152;2022-09-09T14:12:39;19.00;99.90
29731;DHT22;16639;51.488;0.152;2022-09-09T14:15:07;19.00;99.90
29731;DHT22;16639;51.488;0.152;2022-09-09T14:17:34;19.00;99.90
29731;DHT22;16639;51.488;0.152;2022-09-09T14:20:05;19.00;99.90
29731;DHT22;16639;51.488;0.152;2022-09-09T14:22:35;19.10;99.90
29731;DHT22;16639;51.488;0.152;2022-09-09T14:25:02;19.10;99.90
29731;DHT22;16639;51.488;0.152;2022-09-09T14:27:29;19.10;99.90
29731;DHT22;16639;51.488;0.152;2022-09-09T14:29:58;19.10;99.90
29731;DHT22;16639;51.488;0.152;2022-09-09T14:32:26;18.90;99.90
29731;DHT22;16639;51.488;0.152;2022-09-09T14:34:54;19.20;99.90
29731;DHT22;16639;51.488;0.152;2022-09-09T14:37:21;19.20;99.90
29731;DHT22;16639;51.488;0.152;2022-09-09T14:39:48;19.30;99.90
29731;DHT22;16639;51.488;0.152;2022-09-09T14:42:17;20.60;99.90
29731;DHT22;16639;51.488;0.152;2022-09-09T14:44:45;19.50;99.90
29731;DHT22;16639;51.488;0.152;2022-09-09T14:47:12;19.60;99.90
29731;DHT22;16639;51.488;0.152;2022-09-09T14:49:40;19.60;99.90
29731;DHT22;16639;51.488;0.152;2022-09-09T14:52:12;19.70;99.90
29731;DHT22;16639;51.488;0.152;2022-09-09T14:54:40;19.80;99.90
29731;DHT22;16639;51.488;0.152;2022-09-09T14:57:07;19.80;99.90
29731;DHT22;16639;51.488;0.152;2022-09-09T14:59:36;19.70;99.90
29731;DHT22;16639;51.488;0.152;2022-09-09T15:02:03;19.80;99.90
29731;DHT22;16639;51.488;0.152;2022-09-09T15:04:31;19.80;99.90
29731;DHT22;16639;51.488;0.152;2022-09-09T15:06:59;19.80;99.90
29731;DHT22;16639;51.488;0.152;2022-09-09T15:09:26;19.70;99.90
29731;DHT22;16639;51.488;0.152;2022-09-09T15:11:53;19.70;99.90
29731;DHT22;16639;51.488;0.152;2022-09-09T15:14:20;19.70;99.90
29731;DHT22;16639;51.488;0.152;2022-09-09T15:16:51;19.40;99.90
29731;DHT22;16639;51.488;0.152;2022-09-09T15:19:18;18.90;99.90
29731;DHT22;16639;51.488;0.152;2022-09-09T15:21:46;19.60;99.90
29731;DHT22;16639;51.488;0.152;2022-09-09T15:24:13;19.60;99.90
29731;DHT22;16639;51.488;0.152;2022-09-09T15:26:40;19.60;99.90
29731;DHT22;16639;51.488;0.152;2022-09-09T15:29:07;19.70;99.90
29731;DHT22;16639;51.488;0.152;2022-09-09T15:31:35;19.80;99.90
29731;DHT22;16639;51.488;0.152;2022-09-09T15:34:06;19.90;99.90
29731;DHT22;16639;51.488;0.152;2022-09-09T15:36:34;19.90;99.90
29731;DHT22;16639;51.488;0.152;2022-09-09T15:39:03;19.90;99.90
29731;DHT22;16639;51.488;0.152;2022-09-09T15:41:31;19.90;99.90
29731;DHT22;16639;51.488;0.152;2022-09-09T15:43:58;19.90;99.90
29731;DHT22;16639;51.488;0.152;2022-09-09T15:46:28;19.70;99.90
29731;DHT22;16639;51.488;0.152;2022-09-09T15:48:57;19.70;99.90
29731;DHT22;16639;51.488;0.152;2022-09-09T15:51:25;19.50;99.90
29731;DHT22;16639;51.488;0.152;2022-09-09T15:54:09;19.40;99.90
29731;DHT22;16639;51.488;0.152;2022-09-09T15:56:37;19.80;99.90
29731;DHT22;16639;51.488;0.152;2022-09-09T15:59:04;19.00;99.90
29731;DHT22;16639;51.488;0.152;2022-09-09T16:01:31;18.80;99.90
29731;DHT22;16639;51.488;0.152;2022-09-09T16:03:59;18.70;99.90
29731;DHT22;16639;51.488;0.152;2022-09-09T16:06:27;18.70;99.90
29731;DHT22;16639;51.488;0.152;2022-09-09T16:08:56;18.70;99.90
29731;DHT22;16639;51.488;0.152;2022-09-09T16:11:24;18.60;99.90
29731;DHT22;16639;51.488;0.152;2022-09-09T16:13:53;18.70;99.90
29731;DHT22;16639;51.488;0.152;2022-09-09T16:16:22;18.70;99.90
29731;DHT22;16639;51.488;0.152;2022-09-09T16:18:51;18.70;99.90
29731;DHT22;16639;51.488;0.152;2022-09-09T16:21:20;20.80;99.90
29731;DHT22;16639;51.488;0.152;2022-09-09T16:23:48;18.70;99.90
29731;DHT22;16639;51.488;0.152;2022-09-09T16:26:17;18.70;99.90
29731;DHT22;16639;51.488;0.152;2022-09-09T16:28:46;18.80;99.90
29731;DHT22;16639;51.488;0.152;2022-09-09T16:31:17;18.70;99.90
29731;DHT22;16639;51.488;0.152;2022-09-09T16:33:45;18.70;99.90
29731;DHT22;16639;51.488;0.152;2022-09-09T16:36:14;18.70;99.90
29731;DHT22;16639;51.488;0.152;2022-09-09T16:38:42;18.70;99.90
29731;DHT22;16639;51.488;0.152;2022-09-09T16:41:10;18.70;99.90
29731;DHT22;16639;51.488;0.152;2022-09-09T16:43:38;18.70;99.90
29731;DHT22;16639;51.488;0.152;2022-09-09T16:46:16;18.70;99.90
29731;DHT22;16639;51.488;0.152;2022-09-09T16:48:44;18.50;99.90
29731;DHT22;16639;51.488;0.152;2022-09-09T16:51:34;18.60;99.90
29731;DHT22;16639;51.488;0.152;2022-09-09T16:54:00;18.60;99.90
29731;DHT22;16639;51.488;0.152;2022-09-09T16:56:29;18.60;99.90
29731;DHT22;16639;51.488;0.152;2022-09-09T16:58:58;18.40;99.90
29731;DHT22;16639;51.488;0.152;2022-09-09T17:01:28;18.50;99.90
29731;DHT22;16639;51.488;0.152;2022-09-09T17:03:56;18.60;99.90
29731;DHT22;16639;51.488;0.152;2022-09-09T17:06:28;18.60;99.90
29731;DHT22;16639;51.488;0.152;2022-09-09T17:08:56;18.60;99.90
29731;DHT22;16639;51.488;0.152;2022-09-09T17:11:24;18.50;99.90
29731;DHT22;16639;51.488;0.152;2022-09-09T17:13:52;18.50;99.90
29731;DHT22;16639;51.488;0.152;2022-09-09T17:16:19;18.50;99.90
29731;DHT22;16639;51.488;0.152;2022-09-09T17:18:49;18.50;99.90
29731;DHT22;16639;51.488;0.152;2022-09-09T17:21:21;18.50;99.90
29731;DHT22;16639;51.488;0.152;2022-09-09T17:23:49;18.40;99.90
29731;DHT22;16639;51.488;0.152;2022-09-09T17:26:17;18.40;99.90
29731;DHT22;16639;51.488;0.152;2022-09-09T17:28:44;18.30;99.90
29731;DHT22;16639;51.488;0.152;2022-09-09T17:31:16;18.30;99.90
29731;DHT22;16639;51.488;0.152;2022-09-09T17:33:45;18.30;99.90
29731;DHT22;16639;51.488;0.152;2022-09-09T17:36:20;18.30;99.90
29731;DHT22;16639;51.488;0.152;2022-09-09T17:38:48;18.20;99.90
29731;DHT22;16639;51.488;0.152;2022-09-09T17:41:17;18.00;99.90
29731;DHT22;16639;51.488;0.152;2022-09-09T17:43:45;18.10;99.90
29731;DHT22;16639;51.488;0.152;2022-09-09T17:46:14;18.00;99.90
29731;DHT22;16639;51.488;0.152;2022-09-09T17:48:42;18.00;99.90
29731;DHT22;16639;51.488;0.152;2022-09-09T17:51:14;18.00;99.90